Fisher Golf — FUGD — position and weather

sailwx.info

Track history (hours):
 
Tides and Currents Weather Stations Pressure Air Temp Water Temp Dewpoint Dewpoint Depression Visibility Wind Speed Wind Dir Waves Ship Positions

Fisher Golf

Last reported at 2016-Aug-24 04:19 UTC. Time now 2016-Aug-24 06:49 UTC.
Position N 45°55' W 001°20'.

Length 20 m.

Type: Fishing. MMSI: 228239000.

Date/timePositionNaut miles runAvg speedWind from/ knotsBaromVisibWave heightAir tempDewpointWater temp
2016-Aug-24 04:19N 45°55' W 001°20'0 0.0
2016-Aug-24 03:24N 45°55' W 001°20'0 0.0
2016-Aug-24 02:22N 45°55' W 001°20'0 0.0
2016-Aug-24 01:33N 45°55' W 001°20'0 0.0
2016-Aug-24 00:33N 45°55' W 001°20'0 0.0
2016-Aug-23 23:33N 45°55' W 001°20'0 0.0
2016-Aug-23 22:33N 45°55' W 001°20'0 0.0
2016-Aug-23 21:33N 45°55' W 001°20'0 0.0
2016-Aug-23 20:33N 45°55' W 001°20'0 0.0
2016-Aug-23 19:33N 45°55' W 001°20'0 0.0
2016-Aug-23 18:33N 45°55' W 001°20'0 0.0
2016-Aug-23 17:32N 45°55' W 001°20'93 2.8
2016-Aug-22 08:33N 46°22' W 003°28'2 1.9
2016-Aug-22 07:33N 46°23' W 003°26'2 2.4
2016-Aug-22 06:32N 46°22' W 003°28'4 3.0
2016-Aug-22 05:22N 46°21' W 003°33'20 2.5
2016-Aug-21 21:15N 46°38' W 003°48'3 3.0
2016-Aug-21 20:15N 46°37' W 003°45'  
2016-Aug-19 06:08N 46°13' W 003°32'44 5.6
2016-Aug-18 22:18N 46°06' W 002°30'50 1.1
2016-Aug-17 00:34N 45°54' W 001°20'5 4.8
2016-Aug-16 23:32N 45°51' W 001°26'43 7.9
2016-Aug-16 18:04N 45°32' W 002°21'4 8.2
2016-Aug-16 17:33N 45°30' W 002°27'21 3.3
2016-Aug-16 11:07N 45°36' W 002°56'2 3.0
2016-Aug-16 10:33N 45°37' W 002°57'4 2.9
2016-Aug-16 09:14N 45°41' W 003°00'2 2.9
2016-Aug-16 08:33N 45°42' W 003°02'3 2.9
2016-Aug-16 07:33N 45°45' W 003°03'52 2.5
2016-Aug-15 10:30N 46°25' W 003°52'5 2.5
2016-Aug-15 08:30N 46°22' W 003°46'12 1.9
2016-Aug-15 02:09N 46°28' W 004°02'12 0.6
2016-Aug-14 06:33N 46°39' W 003°56'6 2.8
2016-Aug-14 04:31N 46°41' W 004°04'  
Track history (hours):
 
Tides and Currents Weather Stations Pressure Air Temp Water Temp Dewpoint Dewpoint Depression Visibility Wind Speed Wind Dir Waves Ship Positions

Fisher Golf

Last reported at 2016-Aug-24 04:19 UTC. Time now 2016-Aug-24 06:49 UTC.
Position N 45°55' W 001°20'.

Length 20 m.

Type: Fishing. MMSI: 228239000.

Date/timePositionNaut miles runAvg speedWind from/ knotsBaromVisibWave heightAir tempDewpointWater temp
2016-Aug-24 04:19N 45°55' W 001°20'0 0.0
2016-Aug-24 03:24N 45°55' W 001°20'0 0.0
2016-Aug-24 02:22N 45°55' W 001°20'0 0.0
2016-Aug-24 01:33N 45°55' W 001°20'0 0.0
2016-Aug-24 00:33N 45°55' W 001°20'0 0.0
2016-Aug-23 23:33N 45°55' W 001°20'0 0.0
2016-Aug-23 22:33N 45°55' W 001°20'0 0.0
2016-Aug-23 21:33N 45°55' W 001°20'0 0.0
2016-Aug-23 20:33N 45°55' W 001°20'0 0.0
2016-Aug-23 19:33N 45°55' W 001°20'0 0.0
2016-Aug-23 18:33N 45°55' W 001°20'0 0.0
2016-Aug-23 17:32N 45°55' W 001°20'93 2.8
2016-Aug-22 08:33N 46°22' W 003°28'2 1.9
2016-Aug-22 07:33N 46°23' W 003°26'2 2.4
2016-Aug-22 06:32N 46°22' W 003°28'4 3.0
2016-Aug-22 05:22N 46°21' W 003°33'20 2.5
2016-Aug-21 21:15N 46°38' W 003°48'3 3.0
2016-Aug-21 20:15N 46°37' W 003°45'  
2016-Aug-19 06:08N 46°13' W 003°32'44 5.6
2016-Aug-18 22:18N 46°06' W 002°30'50 1.1
2016-Aug-17 00:34N 45°54' W 001°20'5 4.8
2016-Aug-16 23:32N 45°51' W 001°26'43 7.9
2016-Aug-16 18:04N 45°32' W 002°21'4 8.2
2016-Aug-16 17:33N 45°30' W 002°27'21 3.3
2016-Aug-16 11:07N 45°36' W 002°56'2 3.0
2016-Aug-16 10:33N 45°37' W 002°57'4 2.9
2016-Aug-16 09:14N 45°41' W 003°00'2 2.9
2016-Aug-16 08:33N 45°42' W 003°02'3 2.9
2016-Aug-16 07:33N 45°45' W 003°03'52 2.5
2016-Aug-15 10:30N 46°25' W 003°52'5 2.5
2016-Aug-15 08:30N 46°22' W 003°46'12 1.9
2016-Aug-15 02:09N 46°28' W 004°02'12 0.6
2016-Aug-14 06:33N 46°39' W 003°56'6 2.8
2016-Aug-14 04:31N 46°41' W 004°04'  

Dump ship's entire track history